sensor_id;sensor_type;location;lat;lon;timestamp;temperature;humidity
46816;DHT22;32787;53.316;8.670;2022-07-29T00:02:01;13.10;80.40
46816;DHT22;32787;53.316;8.670;2022-07-29T00:04:27;13.20;80.70
46816;DHT22;32787;53.316;8.670;2022-07-29T00:06:52;13.20;80.70
46816;DHT22;32787;53.316;8.670;2022-07-29T00:09:18;13.20;80.60
46816;DHT22;32787;53.316;8.670;2022-07-29T00:11:44;13.10;80.80
46816;DHT22;32787;53.316;8.670;2022-07-29T00:14:09;13.10;80.80
46816;DHT22;32787;53.316;8.670;2022-07-29T00:16:35;13.20;80.70
46816;DHT22;32787;53.316;8.670;2022-07-29T00:19:01;13.20;80.60
46816;DHT22;32787;53.316;8.670;2022-07-29T00:21:27;13.30;80.60
46816;DHT22;32787;53.316;8.670;2022-07-29T00:23:52;13.10;80.70
46816;DHT22;32787;53.316;8.670;2022-07-29T00:26:18;13.10;80.90
46816;DHT22;32787;53.316;8.670;2022-07-29T00:28:44;13.00;81.00
46816;DHT22;32787;53.316;8.670;2022-07-29T00:31:09;13.00;81.00
46816;DHT22;32787;53.316;8.670;2022-07-29T00:33:35;13.10;80.80
46816;DHT22;32787;53.316;8.670;2022-07-29T00:36:00;12.80;81.30
46816;DHT22;32787;53.316;8.670;2022-07-29T00:38:26;12.70;81.80
46816;DHT22;32787;53.316;8.670;2022-07-29T00:40:52;12.70;82.30
46816;DHT22;32787;53.316;8.670;2022-07-29T00:43:17;13.00;81.70
46816;DHT22;32787;53.316;8.670;2022-07-29T00:45:43;13.00;81.40
46816;DHT22;32787;53.316;8.670;2022-07-29T00:48:09;13.00;81.60
46816;DHT22;32787;53.316;8.670;2022-07-29T00:50:36;12.80;81.80
46816;DHT22;32787;53.316;8.670;2022-07-29T00:53:03;12.90;81.90
46816;DHT22;32787;53.316;8.670;2022-07-29T00:55:29;12.80;82.00
46816;DHT22;32787;53.316;8.670;2022-07-29T00:57:55;12.80;81.80
46816;DHT22;32787;53.316;8.670;2022-07-29T01:00:24;12.80;81.50
46816;DHT22;32787;53.316;8.670;2022-07-29T01:02:50;12.90;81.60
46816;DHT22;32787;53.316;8.670;2022-07-29T01:05:18;12.80;82.00
46816;DHT22;32787;53.316;8.670;2022-07-29T01:07:45;12.80;81.70
46816;DHT22;32787;53.316;8.670;2022-07-29T01:10:13;12.70;82.00
46816;DHT22;32787;53.316;8.670;2022-07-29T01:12:40;12.70;82.30
46816;DHT22;32787;53.316;8.670;2022-07-29T01:15:08;12.70;82.50
46816;DHT22;32787;53.316;8.670;2022-07-29T01:23:32;12.50;82.80
46816;DHT22;32787;53.316;8.670;2022-07-29T01:26:33;12.50;82.60
46816;DHT22;32787;53.316;8.670;2022-07-29T01:31:56;12.70;82.00
46816;DHT22;32787;53.316;8.670;2022-07-29T01:34:29;12.70;82.10
46816;DHT22;32787;53.316;8.670;2022-07-29T01:37:23;12.70;82.20
46816;DHT22;32787;53.316;8.670;2022-07-29T01:39:52;12.80;82.00
46816;DHT22;32787;53.316;8.670;2022-07-29T01:47:28;12.70;82.10
46816;DHT22;32787;53.316;8.670;2022-07-29T01:49:59;12.50;82.30
46816;DHT22;32787;53.316;8.670;2022-07-29T01:52:36;12.50;82.60
46816;DHT22;32787;53.316;8.670;2022-07-29T01:55:07;12.40;82.70
46816;DHT22;32787;53.316;8.670;2022-07-29T01:57:36;12.40;83.10
46816;DHT22;32787;53.316;8.670;2022-07-29T02:00:04;12.30;82.80
46816;DHT22;32787;53.316;8.670;2022-07-29T02:02:32;12.30;82.90
46816;DHT22;32787;53.316;8.670;2022-07-29T02:05:00;12.40;82.80
46816;DHT22;32787;53.316;8.670;2022-07-29T02:07:29;12.40;82.90
46816;DHT22;32787;53.316;8.670;2022-07-29T02:09:58;12.40;82.80
46816;DHT22;32787;53.316;8.670;2022-07-29T02:12:25;12.40;82.90
46816;DHT22;32787;53.316;8.670;2022-07-29T02:14:53;12.50;82.30
46816;DHT22;32787;53.316;8.670;2022-07-29T02:17:27;12.40;82.70
46816;DHT22;32787;53.316;8.670;2022-07-29T02:19:56;12.60;82.30
46816;DHT22;32787;53.316;8.670;2022-07-29T02:22:24;12.40;82.80
46816;DHT22;32787;53.316;8.670;2022-07-29T02:24:51;12.30;82.80
46816;DHT22;32787;53.316;8.670;2022-07-29T02:27:19;12.30;83.20
46816;DHT22;32787;53.316;8.670;2022-07-29T02:29:46;12.30;83.10
46816;DHT22;32787;53.316;8.670;2022-07-29T02:32:13;12.30;83.00
46816;DHT22;32787;53.316;8.670;2022-07-29T02:34:41;12.30;83.20
46816;DHT22;32787;53.316;8.670;2022-07-29T02:37:10;12.30;83.20
46816;DHT22;32787;53.316;8.670;2022-07-29T02:39:37;12.30;83.20
46816;DHT22;32787;53.316;8.670;2022-07-29T02:42:07;12.40;82.90
46816;DHT22;32787;53.316;8.670;2022-07-29T02:44:33;12.30;82.80
46816;DHT22;32787;53.316;8.670;2022-07-29T02:47:22;12.20;83.00
46816;DHT22;32787;53.316;8.670;2022-07-29T02:49:53;12.20;83.00
46816;DHT22;32787;53.316;8.670;2022-07-29T02:52:34;12.30;83.00
46816;DHT22;32787;53.316;8.670;2022-07-29T02:55:21;12.50;82.60
46816;DHT22;32787;53.316;8.670;2022-07-29T02:57:51;12.50;82.90
46816;DHT22;32787;53.316;8.670;2022-07-29T03:00:21;12.50;82.40
46816;DHT22;32787;53.316;8.670;2022-07-29T03:02:51;12.50;82.30
46816;DHT22;32787;53.316;8.670;2022-07-29T03:05:19;12.50;82.20
46816;DHT22;32787;53.316;8.670;2022-07-29T03:07:52;12.70;82.30
46816;DHT22;32787;53.316;8.670;2022-07-29T03:10:18;12.80;82.30
46816;DHT22;32787;53.316;8.670;2022-07-29T03:12:44;12.70;82.10
46816;DHT22;32787;53.316;8.670;2022-07-29T03:15:10;12.80;82.30
46816;DHT22;32787;53.316;8.670;2022-07-29T03:17:37;12.70;82.40
46816;DHT22;32787;53.316;8.670;2022-07-29T03:20:04;12.70;82.40
46816;DHT22;32787;53.316;8.670;2022-07-29T03:22:30;12.60;82.50
46816;DHT22;32787;53.316;8.670;2022-07-29T03:24:56;12.50;82.80
46816;DHT22;32787;53.316;8.670;2022-07-29T03:27:21;12.60;82.90
46816;DHT22;32787;53.316;8.670;2022-07-29T03:29:47;12.70;83.00
46816;DHT22;32787;53.316;8.670;2022-07-29T03:32:13;12.80;82.60
46816;DHT22;32787;53.316;8.670;2022-07-29T03:34:38;12.80;82.20
46816;DHT22;32787;53.316;8.670;2022-07-29T03:37:05;12.80;82.70
46816;DHT22;32787;53.316;8.670;2022-07-29T03:39:35;12.80;82.60
46816;DHT22;32787;53.316;8.670;2022-07-29T03:42:02;12.70;82.10
46816;DHT22;32787;53.316;8.670;2022-07-29T03:44:29;12.60;82.30
46816;DHT22;32787;53.316;8.670;2022-07-29T03:46:58;12.60;82.50
46816;DHT22;32787;53.316;8.670;2022-07-29T03:49:26;12.70;82.30
46816;DHT22;32787;53.316;8.670;2022-07-29T03:51:52;12.50;82.30
46816;DHT22;32787;53.316;8.670;2022-07-29T03:54:18;12.40;82.80
46816;DHT22;32787;53.316;8.670;2022-07-29T03:56:46;12.40;82.90
46816;DHT22;32787;53.316;8.670;2022-07-29T03:59:15;12.40;82.80
46816;DHT22;32787;53.316;8.670;2022-07-29T04:01:42;12.60;82.50
46816;DHT22;32787;53.316;8.670;2022-07-29T04:04:08;12.60;82.50
46816;DHT22;32787;53.316;8.670;2022-07-29T04:06:42;12.70;82.10
46816;DHT22;32787;53.316;8.670;2022-07-29T04:09:08;12.90;81.90
46816;DHT22;32787;53.316;8.670;2022-07-29T04:11:34;12.90;82.50
46816;DHT22;32787;53.316;8.670;2022-07-29T04:14:01;13.00;82.20
46816;DHT22;32787;53.316;8.670;2022-07-29T04:16:26;13.30;81.50
46816;DHT22;32787;53.316;8.670;2022-07-29T04:18:52;13.10;81.50
46816;DHT22;32787;53.316;8.670;2022-07-29T04:21:18;12.90;81.60
46816;DHT22;32787;53.316;8.670;2022-07-29T04:23:43;12.90;81.70
46816;DHT22;32787;53.316;8.670;2022-07-29T04:26:10;12.80;81.70
46816;DHT22;32787;53.316;8.670;2022-07-29T04:28:36;12.80;81.80
46816;DHT22;32787;53.316;8.670;2022-07-29T04:31:04;12.80;81.90
46816;DHT22;32787;53.316;8.670;2022-07-29T04:33:30;12.80;81.90
46816;DHT22;32787;53.316;8.670;2022-07-29T04:35:56;12.90;81.80
46816;DHT22;32787;53.316;8.670;2022-07-29T04:38:21;12.90;81.70
46816;DHT22;32787;53.316;8.670;2022-07-29T04:40:47;13.00;81.50
46816;DHT22;32787;53.316;8.670;2022-07-29T04:43:13;13.10;81.40
46816;DHT22;32787;53.316;8.670;2022-07-29T04:45:38;13.10;81.40
46816;DHT22;32787;53.316;8.670;2022-07-29T04:48:04;13.30;81.10
46816;DHT22;32787;53.316;8.670;2022-07-29T04:50:30;13.30;80.80
46816;DHT22;32787;53.316;8.670;2022-07-29T04:52:56;13.30;81.10
46816;DHT22;32787;53.316;8.670;2022-07-29T04:55:21;13.40;80.70
46816;DHT22;32787;53.316;8.670;2022-07-29T04:57:47;13.40;80.80
46816;DHT22;32787;53.316;8.670;2022-07-29T05:00:13;13.40;80.40
46816;DHT22;32787;53.316;8.670;2022-07-29T05:02:38;13.50;80.40
46816;DHT22;32787;53.316;8.670;2022-07-29T05:05:04;13.50;80.20
46816;DHT22;32787;53.316;8.670;2022-07-29T05:07:30;13.70;79.90
46816;DHT22;32787;53.316;8.670;2022-07-29T05:09:55;13.70;80.10
46816;DHT22;32787;53.316;8.670;2022-07-29T05:12:25;13.80;79.40
46816;DHT22;32787;53.316;8.670;2022-07-29T05:14:51;13.80;79.30
46816;DHT22;32787;53.316;8.670;2022-07-29T05:17:17;13.80;80.00
46816;DHT22;32787;53.316;8.670;2022-07-29T05:19:42;13.80;79.80
46816;DHT22;32787;53.316;8.670;2022-07-29T05:22:08;13.80;79.70
46816;DHT22;32787;53.316;8.670;2022-07-29T05:24:33;13.80;79.30
46816;DHT22;32787;53.316;8.670;2022-07-29T05:26:59;13.80;79.50
46816;DHT22;32787;53.316;8.670;2022-07-29T05:29:25;13.90;79.80
46816;DHT22;32787;53.316;8.670;2022-07-29T05:31:51;13.90;79.40
46816;DHT22;32787;53.316;8.670;2022-07-29T05:34:18;13.90;79.40
46816;DHT22;32787;53.316;8.670;2022-07-29T05:36:45;14.00;79.00
46816;DHT22;32787;53.316;8.670;2022-07-29T05:39:10;14.00;79.20
46816;DHT22;32787;53.316;8.670;2022-07-29T05:41:36;14.10;78.80
46816;DHT22;32787;53.316;8.670;2022-07-29T05:44:02;14.10;79.30
46816;DHT22;32787;53.316;8.670;2022-07-29T05:46:27;14.10;78.80
46816;DHT22;32787;53.316;8.670;2022-07-29T05:48:53;14.10;78.70
46816;DHT22;32787;53.316;8.670;2022-07-29T05:51:19;14.20;78.80
46816;DHT22;32787;53.316;8.670;2022-07-29T05:53:44;14.30;78.80
46816;DHT22;32787;53.316;8.670;2022-07-29T05:56:10;14.30;78.40
46816;DHT22;32787;53.316;8.670;2022-07-29T05:58:36;14.30;78.50
46816;DHT22;32787;53.316;8.670;2022-07-29T06:01:02;14.40;78.60
46816;DHT22;32787;53.316;8.670;2022-07-29T06:03:28;14.40;78.10
46816;DHT22;32787;53.316;8.670;2022-07-29T06:05:54;14.50;77.70
46816;DHT22;32787;53.316;8.670;2022-07-29T06:08:19;14.60;77.70
46816;DHT22;32787;53.316;8.670;2022-07-29T06:10:45;14.60;77.40
46816;DHT22;32787;53.316;8.670;2022-07-29T06:13:11;14.70;78.30
46816;DHT22;32787;53.316;8.670;2022-07-29T06:15:37;14.80;77.70
46816;DHT22;32787;53.316;8.670;2022-07-29T06:18:03;14.80;77.10
46816;DHT22;32787;53.316;8.670;2022-07-29T06:20:32;15.10;77.10
46816;DHT22;32787;53.316;8.670;2022-07-29T06:22:59;15.10;76.20
46816;DHT22;32787;53.316;8.670;2022-07-29T06:25:24;15.10;76.20
46816;DHT22;32787;53.316;8.670;2022-07-29T06:27:50;15.00;76.10
46816;DHT22;32787;53.316;8.670;2022-07-29T06:30:16;15.00;76.80
46816;DHT22;32787;53.316;8.670;2022-07-29T06:32:41;15.20;76.90
46816;DHT22;32787;53.316;8.670;2022-07-29T06:35:07;15.40;77.00
46816;DHT22;32787;53.316;8.670;2022-07-29T06:37:33;15.30;76.50
46816;DHT22;32787;53.316;8.670;2022-07-29T06:39:58;15.30;75.90
46816;DHT22;32787;53.316;8.670;2022-07-29T06:42:43;15.30;76.50
46816;DHT22;32787;53.316;8.670;2022-07-29T06:45:11;15.50;76.10
46816;DHT22;32787;53.316;8.670;2022-07-29T06:47:37;15.60;77.30
46816;DHT22;32787;53.316;8.670;2022-07-29T06:50:03;15.70;76.40
46816;DHT22;32787;53.316;8.670;2022-07-29T06:52:29;15.70;75.50
46816;DHT22;32787;53.316;8.670;2022-07-29T06:54:54;15.80;75.30
46816;DHT22;32787;53.316;8.670;2022-07-29T06:57:21;15.80;75.60
46816;DHT22;32787;53.316;8.670;2022-07-29T06:59:47;15.80;75.30
46816;DHT22;32787;53.316;8.670;2022-07-29T07:02:13;15.90;74.60
46816;DHT22;32787;53.316;8.670;2022-07-29T07:04:39;15.80;75.10
46816;DHT22;32787;53.316;8.670;2022-07-29T07:07:04;15.80;76.00
46816;DHT22;32787;53.316;8.670;2022-07-29T07:09:30;15.90;75.60
46816;DHT22;32787;53.316;8.670;2022-07-29T07:11:55;16.00;75.40
46816;DHT22;32787;53.316;8.670;2022-07-29T07:14:21;16.00;75.50
46816;DHT22;32787;53.316;8.670;2022-07-29T07:16:46;16.10;75.20
46816;DHT22;32787;53.316;8.670;2022-07-29T07:19:12;16.20;75.40
46816;DHT22;32787;53.316;8.670;2022-07-29T07:21:38;16.20;74.10
46816;DHT22;32787;53.316;8.670;2022-07-29T07:24:04;16.30;74.50
46816;DHT22;32787;53.316;8.670;2022-07-29T07:26:30;16.60;74.80
46816;DHT22;32787;53.316;8.670;2022-07-29T07:28:56;16.60;73.90
46816;DHT22;32787;53.316;8.670;2022-07-29T07:31:22;16.70;74.00
46816;DHT22;32787;53.316;8.670;2022-07-29T07:33:47;16.70;73.80
46816;DHT22;32787;53.316;8.670;2022-07-29T07:36:13;16.80;74.00
46816;DHT22;32787;53.316;8.670;2022-07-29T07:38:39;16.80;73.70
46816;DHT22;32787;53.316;8.670;2022-07-29T07:41:04;17.00;73.40
46816;DHT22;32787;53.316;8.670;2022-07-29T07:43:30;16.90;72.60
46816;DHT22;32787;53.316;8.670;2022-07-29T07:45:56;16.90;73.00
46816;DHT22;32787;53.316;8.670;2022-07-29T07:48:22;16.80;73.00
46816;DHT22;32787;53.316;8.670;2022-07-29T07:50:48;17.10;73.50
46816;DHT22;32787;53.316;8.670;2022-07-29T07:53:15;17.50;72.60
46816;DHT22;32787;53.316;8.670;2022-07-29T07:55:44;17.30;72.10
46816;DHT22;32787;53.316;8.670;2022-07-29T07:58:09;17.30;71.80
46816;DHT22;32787;53.316;8.670;2022-07-29T08:00:35;17.40;72.20
46816;DHT22;32787;53.316;8.670;2022-07-29T08:03:01;17.80;71.10
46816;DHT22;32787;53.316;8.670;2022-07-29T08:05:28;17.80;71.10
46816;DHT22;32787;53.316;8.670;2022-07-29T08:07:53;17.60;70.90
46816;DHT22;32787;53.316;8.670;2022-07-29T08:10:20;17.70;70.30
46816;DHT22;32787;53.316;8.670;2022-07-29T08:13:05;17.70;71.40
46816;DHT22;32787;53.316;8.670;2022-07-29T08:15:32;17.80;71.40
46816;DHT22;32787;53.316;8.670;2022-07-29T08:17:58;17.80;70.60
46816;DHT22;32787;53.316;8.670;2022-07-29T08:20:24;17.80;69.50
46816;DHT22;32787;53.316;8.670;2022-07-29T08:22:50;17.80;70.50
46816;DHT22;32787;53.316;8.670;2022-07-29T08:25:15;18.10;69.70
46816;DHT22;32787;53.316;8.670;2022-07-29T08:27:43;18.20;69.40
46816;DHT22;32787;53.316;8.670;2022-07-29T08:30:09;18.10;69.30
46816;DHT22;32787;53.316;8.670;2022-07-29T08:32:35;18.20;70.20
46816;DHT22;32787;53.316;8.670;2022-07-29T08:35:01;18.40;70.50
46816;DHT22;32787;53.316;8.670;2022-07-29T08:37:27;18.70;69.20
46816;DHT22;32787;53.316;8.670;2022-07-29T08:39:52;18.70;69.00
46816;DHT22;32787;53.316;8.670;2022-07-29T08:42:18;18.80;67.20
46816;DHT22;32787;53.316;8.670;2022-07-29T08:44:44;19.00;67.00
46816;DHT22;32787;53.316;8.670;2022-07-29T08:47:10;19.00;67.30
46816;DHT22;32787;53.316;8.670;2022-07-29T08:49:39;19.30;66.60
46816;DHT22;32787;53.316;8.670;2022-07-29T08:52:05;19.40;64.60
46816;DHT22;32787;53.316;8.670;2022-07-29T08:54:32;19.30;64.80
46816;DHT22;32787;53.316;8.670;2022-07-29T08:56:58;19.30;66.10
46816;DHT22;32787;53.316;8.670;2022-07-29T08:59:27;19.30;64.90
46816;DHT22;32787;53.316;8.670;2022-07-29T09:01:53;19.30;65.90
46816;DHT22;32787;53.316;8.670;2022-07-29T09:04:20;19.50;65.20
46816;DHT22;32787;53.316;8.670;2022-07-29T09:06:48;19.60;65.00
46816;DHT22;32787;53.316;8.670;2022-07-29T09:09:14;19.80;62.80
46816;DHT22;32787;53.316;8.670;2022-07-29T09:11:41;19.80;62.90
46816;DHT22;32787;53.316;8.670;2022-07-29T09:14:08;19.80;63.30
46816;DHT22;32787;53.316;8.670;2022-07-29T09:21:47;20.20;63.20
46816;DHT22;32787;53.316;8.670;2022-07-29T09:24:45;20.30;62.10
46816;DHT22;32787;53.316;8.670;2022-07-29T09:27:23;20.50;63.00
46816;DHT22;32787;53.316;8.670;2022-07-29T09:30:05;20.90;62.90
46816;DHT22;32787;53.316;8.670;2022-07-29T09:32:31;20.90;57.60
46816;DHT22;32787;53.316;8.670;2022-07-29T09:35:17;20.90;58.80
46816;DHT22;32787;53.316;8.670;2022-07-29T09:37:43;21.00;57.10
46816;DHT22;32787;53.316;8.670;2022-07-29T09:40:18;21.20;57.00
46816;DHT22;32787;53.316;8.670;2022-07-29T09:42:45;21.20;58.40
46816;DHT22;32787;53.316;8.670;2022-07-29T09:45:12;21.40;56.40
46816;DHT22;32787;53.316;8.670;2022-07-29T09:47:47;21.70;58.40
46816;DHT22;32787;53.316;8.670;2022-07-29T09:50:15;21.70;56.30
46816;DHT22;32787;53.316;8.670;2022-07-29T09:52:59;21.70;55.30
46816;DHT22;32787;53.316;8.670;2022-07-29T09:55:25;21.50;56.10
46816;DHT22;32787;53.316;8.670;2022-07-29T09:57:50;21.40;57.10
46816;DHT22;32787;53.316;8.670;2022-07-29T10:00:18;21.40;56.10
46816;DHT22;32787;53.316;8.670;2022-07-29T10:02:45;21.30;58.00
46816;DHT22;32787;53.316;8.670;2022-07-29T10:05:23;21.50;57.90
46816;DHT22;32787;53.316;8.670;2022-07-29T10:07:52;21.50;55.60
46816;DHT22;32787;53.316;8.670;2022-07-29T10:10:20;21.60;55.60
46816;DHT22;32787;53.316;8.670;2022-07-29T10:13:00;21.70;56.10
46816;DHT22;32787;53.316;8.670;2022-07-29T10:15:29;21.70;56.60
46816;DHT22;32787;53.316;8.670;2022-07-29T10:17:56;21.90;56.20
46816;DHT22;32787;53.316;8.670;2022-07-29T10:20:22;21.90;55.40
46816;DHT22;32787;53.316;8.670;2022-07-29T10:22:49;21.90;53.60
46816;DHT22;32787;53.316;8.670;2022-07-29T10:25:16;21.80;52.40
46816;DHT22;32787;53.316;8.670;2022-07-29T10:27:46;21.80;53.30
46816;DHT22;32787;53.316;8.670;2022-07-29T10:30:14;21.90;54.10
46816;DHT22;32787;53.316;8.670;2022-07-29T10:38:58;22.00;52.20
46816;DHT22;32787;53.316;8.670;2022-07-29T10:44:20;22.40;53.30
46816;DHT22;32787;53.316;8.670;2022-07-29T10:46:46;22.50;51.10
46816;DHT22;32787;53.316;8.670;2022-07-29T10:49:20;22.30;52.40
46816;DHT22;32787;53.316;8.670;2022-07-29T10:54:37;22.50;51.80
46816;DHT22;32787;53.316;8.670;2022-07-29T10:59:45;22.80;49.10
46816;DHT22;32787;53.316;8.670;2022-07-29T11:07:22;22.60;49.40
46816;DHT22;32787;53.316;8.670;2022-07-29T11:10:26;22.60;50.00
46816;DHT22;32787;53.316;8.670;2022-07-29T11:12:52;22.60;50.10
46816;DHT22;32787;53.316;8.670;2022-07-29T11:15:22;22.70;49.90
46816;DHT22;32787;53.316;8.670;2022-07-29T11:20:48;22.80;50.50
46816;DHT22;32787;53.316;8.670;2022-07-29T11:23:28;22.90;51.10
46816;DHT22;32787;53.316;8.670;2022-07-29T11:26:16;23.00;47.30
46816;DHT22;32787;53.316;8.670;2022-07-29T11:28:51;23.00;49.00
46816;DHT22;32787;53.316;8.670;2022-07-29T11:34:21;23.00;48.50
46816;DHT22;32787;53.316;8.670;2022-07-29T11:40:07;23.60;50.50
46816;DHT22;32787;53.316;8.670;2022-07-29T11:45:13;23.50;49.70
46816;DHT22;32787;53.316;8.670;2022-07-29T11:47:58;23.70;49.50
46816;DHT22;32787;53.316;8.670;2022-07-29T11:50:33;24.00;51.00
46816;DHT22;32787;53.316;8.670;2022-07-29T11:53:01;24.50;50.00
46816;DHT22;32787;53.316;8.670;2022-07-29T11:55:27;24.50;47.50
46816;DHT22;32787;53.316;8.670;2022-07-29T11:57:58;24.50;46.00
46816;DHT22;32787;53.316;8.670;2022-07-29T12:00:32;24.30;46.90
46816;DHT22;32787;53.316;8.670;2022-07-29T12:03:01;24.40;47.60
46816;DHT22;32787;53.316;8.670;2022-07-29T12:08:11;23.90;48.60
46816;DHT22;32787;53.316;8.670;2022-07-29T12:10:38;24.00;46.50
46816;DHT22;32787;53.316;8.670;2022-07-29T12:13:04;23.80;46.90
46816;DHT22;32787;53.316;8.670;2022-07-29T12:15:30;24.00;47.70
46816;DHT22;32787;53.316;8.670;2022-07-29T12:17:56;24.00;46.80
46816;DHT22;32787;53.316;8.670;2022-07-29T12:20:26;23.80;48.40
46816;DHT22;32787;53.316;8.670;2022-07-29T12:22:53;23.90;49.50
46816;DHT22;32787;53.316;8.670;2022-07-29T12:25:20;24.00;50.20
46816;DHT22;32787;53.316;8.670;2022-07-29T12:27:47;23.90;50.40
46816;DHT22;32787;53.316;8.670;2022-07-29T12:30:16;24.20;49.30
46816;DHT22;32787;53.316;8.670;2022-07-29T12:32:46;23.90;48.60
46816;DHT22;32787;53.316;8.670;2022-07-29T12:35:18;23.70;49.00
46816;DHT22;32787;53.316;8.670;2022-07-29T12:37:45;23.70;49.80
46816;DHT22;32787;53.316;8.670;2022-07-29T12:40:14;23.60;50.10
46816;DHT22;32787;53.316;8.670;2022-07-29T12:45:29;23.40;50.40
46816;DHT22;32787;53.316;8.670;2022-07-29T12:47:55;23.40;51.10
46816;DHT22;32787;53.316;8.670;2022-07-29T12:50:20;23.40;50.90
46816;DHT22;32787;53.316;8.670;2022-07-29T12:52:46;23.50;50.00
46816;DHT22;32787;53.316;8.670;2022-07-29T12:55:12;23.60;50.10
46816;DHT22;32787;53.316;8.670;2022-07-29T13:00:13;23.60;48.20
46816;DHT22;32787;53.316;8.670;2022-07-29T13:02:40;23.50;49.30
46816;DHT22;32787;53.316;8.670;2022-07-29T13:05:08;23.60;50.10
46816;DHT22;32787;53.316;8.670;2022-07-29T13:07:35;23.70;50.50
46816;DHT22;32787;53.316;8.670;2022-07-29T13:10:14;23.80;49.20
46816;DHT22;32787;53.316;8.670;2022-07-29T13:13:09;23.90;47.50
46816;DHT22;32787;53.316;8.670;2022-07-29T13:15:40;23.80;49.00
46816;DHT22;32787;53.316;8.670;2022-07-29T13:18:33;23.80;49.20
46816;DHT22;32787;53.316;8.670;2022-07-29T13:21:13;24.00;49.10
46816;DHT22;32787;53.316;8.670;2022-07-29T13:23:38;23.90;50.00
46816;DHT22;32787;53.316;8.670;2022-07-29T13:26:08;23.90;50.10
46816;DHT22;32787;53.316;8.670;2022-07-29T13:28:35;24.10;48.00
46816;DHT22;32787;53.316;8.670;2022-07-29T13:31:01;24.10;48.50
46816;DHT22;32787;53.316;8.670;2022-07-29T13:33:27;24.20;48.60
46816;DHT22;32787;53.316;8.670;2022-07-29T13:35:52;24.10;48.20
46816;DHT22;32787;53.316;8.670;2022-07-29T13:38:18;24.00;47.80
46816;DHT22;32787;53.316;8.670;2022-07-29T13:40:43;24.00;48.50
46816;DHT22;32787;53.316;8.670;2022-07-29T13:43:10;24.00;48.80
46816;DHT22;32787;53.316;8.670;2022-07-29T13:45:35;23.80;48.40
46816;DHT22;32787;53.316;8.670;2022-07-29T13:48:02;24.00;48.10
46816;DHT22;32787;53.316;8.670;2022-07-29T13:50:27;24.00;49.80
46816;DHT22;32787;53.316;8.670;2022-07-29T13:52:53;23.80;48.80
46816;DHT22;32787;53.316;8.670;2022-07-29T13:55:19;23.70;48.20
46816;DHT22;32787;53.316;8.670;2022-07-29T13:57:45;23.60;49.60
46816;DHT22;32787;53.316;8.670;2022-07-29T14:00:11;23.80;49.80
46816;DHT22;32787;53.316;8.670;2022-07-29T14:02:37;23.90;47.80
46816;DHT22;32787;53.316;8.670;2022-07-29T14:05:07;23.70;48.50
46816;DHT22;32787;53.316;8.670;2022-07-29T14:07:33;23.70;49.70
46816;DHT22;32787;53.316;8.670;2022-07-29T14:09:58;23.60;49.20
46816;DHT22;32787;53.316;8.670;2022-07-29T14:12:24;23.50;48.40
46816;DHT22;32787;53.316;8.670;2022-07-29T14:14:50;23.80;49.50
46816;DHT22;32787;53.316;8.670;2022-07-29T14:17:15;23.70;48.00
46816;DHT22;32787;53.316;8.670;2022-07-29T14:19:41;23.90;48.20
46816;DHT22;32787;53.316;8.670;2022-07-29T14:22:08;23.80;50.60
46816;DHT22;32787;53.316;8.670;2022-07-29T14:24:34;23.70;49.00
46816;DHT22;32787;53.316;8.670;2022-07-29T14:27:00;23.80;49.00
46816;DHT22;32787;53.316;8.670;2022-07-29T14:29:26;23.90;48.20
46816;DHT22;32787;53.316;8.670;2022-07-29T14:31:52;24.40;47.40
46816;DHT22;32787;53.316;8.670;2022-07-29T14:34:18;25.30;47.00
46816;DHT22;32787;53.316;8.670;2022-07-29T14:36:44;25.70;46.50
46816;DHT22;32787;53.316;8.670;2022-07-29T14:39:10;25.30;47.20
46816;DHT22;32787;53.316;8.670;2022-07-29T14:41:36;24.80;47.00
46816;DHT22;32787;53.316;8.670;2022-07-29T14:44:01;24.70;47.90
46816;DHT22;32787;53.316;8.670;2022-07-29T14:46:28;24.90;46.50
46816;DHT22;32787;53.316;8.670;2022-07-29T14:48:53;24.70;47.50
46816;DHT22;32787;53.316;8.670;2022-07-29T14:51:19;24.60;49.10
46816;DHT22;32787;53.316;8.670;2022-07-29T14:53:44;24.50;47.80
46816;DHT22;32787;53.316;8.670;2022-07-29T14:56:10;24.50;48.30
46816;DHT22;32787;53.316;8.670;2022-07-29T14:58:36;24.40;49.20
46816;DHT22;32787;53.316;8.670;2022-07-29T15:01:01;24.30;47.40
46816;DHT22;32787;53.316;8.670;2022-07-29T15:03:27;24.30;47.30
46816;DHT22;32787;53.316;8.670;2022-07-29T15:05:53;24.30;47.90
46816;DHT22;32787;53.316;8.670;2022-07-29T15:08:19;23.90;48.30
46816;DHT22;32787;53.316;8.670;2022-07-29T15:10:45;23.90;49.00
46816;DHT22;32787;53.316;8.670;2022-07-29T15:13:10;23.80;49.10
46816;DHT22;32787;53.316;8.670;2022-07-29T15:15:36;23.70;49.50
46816;DHT22;32787;53.316;8.670;2022-07-29T15:18:02;23.70;50.00
46816;DHT22;32787;53.316;8.670;2022-07-29T15:20:28;23.90;49.50
46816;DHT22;32787;53.316;8.670;2022-07-29T15:22:54;23.90;48.20
46816;DHT22;32787;53.316;8.670;2022-07-29T15:25:21;23.80;49.00
46816;DHT22;32787;53.316;8.670;2022-07-29T15:27:47;23.90;48.00
46816;DHT22;32787;53.316;8.670;2022-07-29T15:30:13;23.90;47.50
46816;DHT22;32787;53.316;8.670;2022-07-29T15:32:42;24.00;47.40
46816;DHT22;32787;53.316;8.670;2022-07-29T15:35:08;23.60;49.00
46816;DHT22;32787;53.316;8.670;2022-07-29T15:37:36;23.50;50.40
46816;DHT22;32787;53.316;8.670;2022-07-29T15:40:01;23.40;49.50
46816;DHT22;32787;53.316;8.670;2022-07-29T15:42:27;23.10;50.60
46816;DHT22;32787;53.316;8.670;2022-07-29T15:44:53;22.80;52.40
46816;DHT22;32787;53.316;8.670;2022-07-29T15:47:18;22.90;51.20
46816;DHT22;32787;53.316;8.670;2022-07-29T15:49:44;23.00;52.00
46816;DHT22;32787;53.316;8.670;2022-07-29T15:52:10;22.80;50.90
46816;DHT22;32787;53.316;8.670;2022-07-29T15:54:38;23.00;50.30
46816;DHT22;32787;53.316;8.670;2022-07-29T15:57:05;22.90;51.20
46816;DHT22;32787;53.316;8.670;2022-07-29T15:59:30;23.00;51.00
46816;DHT22;32787;53.316;8.670;2022-07-29T16:01:56;22.70;52.20
46816;DHT22;32787;53.316;8.670;2022-07-29T16:04:22;22.80;52.30
46816;DHT22;32787;53.316;8.670;2022-07-29T16:06:48;22.90;51.30
46816;DHT22;32787;53.316;8.670;2022-07-29T16:09:15;22.70;52.20
46816;DHT22;32787;53.316;8.670;2022-07-29T16:11:41;22.50;53.80
46816;DHT22;32787;53.316;8.670;2022-07-29T16:14:07;22.40;54.20
46816;DHT22;32787;53.316;8.670;2022-07-29T16:16:35;22.30;54.30
46816;DHT22;32787;53.316;8.670;2022-07-29T16:19:01;22.30;53.70
46816;DHT22;32787;53.316;8.670;2022-07-29T16:21:27;22.30;54.40
46816;DHT22;32787;53.316;8.670;2022-07-29T16:23:52;22.40;56.00
46816;DHT22;32787;53.316;8.670;2022-07-29T16:26:18;22.60;53.70
46816;DHT22;32787;53.316;8.670;2022-07-29T16:28:43;22.50;54.40
46816;DHT22;32787;53.316;8.670;2022-07-29T16:31:09;22.50;53.90
46816;DHT22;32787;53.316;8.670;2022-07-29T16:33:35;22.50;55.30